createdAt,value
2018-06-17T00:00:50.401Z,67.67
2018-06-17T00:03:18.436Z,67.28
2018-06-17T00:05:46.513Z,68.00
2018-06-17T00:08:14.556Z,68.14
2018-06-17T00:10:42.608Z,68.47
2018-06-17T00:13:10.652Z,68.21
2018-06-17T00:15:38.720Z,68.15
2018-06-17T00:18:06.748Z,68.81
2018-06-17T00:20:34.992Z,68.97
2018-06-17T00:23:03.034Z,69.25
2018-06-17T00:25:31.099Z,68.52
2018-06-17T00:27:59.149Z,68.71
2018-06-17T00:30:27.233Z,68.45
2018-06-17T00:32:55.289Z,68.58
2018-06-17T00:35:23.336Z,68.92
2018-06-17T00:37:51.453Z,68.57
2018-06-17T00:40:19.520Z,69.04
2018-06-17T00:42:47.600Z,68.68
2018-06-17T00:45:15.640Z,68.74
2018-06-17T00:47:43.700Z,69.44
2018-06-17T00:50:11.751Z,69.06
2018-06-17T00:52:39.804Z,68.53
2018-06-17T00:55:07.848Z,68.50
2018-06-17T00:57:48.236Z,69.10
2018-06-17T01:00:16.307Z,69.42
2018-06-17T01:02:44.783Z,69.67
2018-06-17T01:05:12.900Z,69.18
2018-06-17T01:07:41.088Z,69.51
2018-06-17T01:10:09.269Z,69.58
2018-06-17T01:12:37.561Z,69.47
2018-06-17T01:15:05.980Z,69.44
2018-06-17T01:17:34.044Z,69.36
2018-06-17T01:20:02.084Z,69.91
2018-06-17T01:22:30.139Z,69.93
2018-06-17T01:24:58.184Z,69.96
2018-06-17T01:27:26.273Z,70.01
2018-06-17T01:29:54.305Z,69.86
2018-06-17T01:32:22.367Z,69.82
2018-06-17T01:34:50.609Z,70.15
2018-06-17T01:37:18.648Z,70.76
2018-06-17T01:39:46.689Z,70.24
2018-06-17T01:42:14.733Z,70.24
2018-06-17T01:44:42.768Z,70.81
2018-06-17T01:47:10.817Z,69.84
2018-06-17T01:49:38.861Z,70.37
2018-06-17T01:52:06.908Z,70.14
2018-06-17T01:54:34.938Z,69.74
2018-06-17T01:57:02.996Z,70.12
2018-06-17T01:59:31.039Z,70.58
2018-06-17T02:01:59.084Z,69.94
2018-06-17T02:04:32.446Z,70.21
2018-06-17T02:07:05.792Z,69.88
2018-06-17T02:09:39.252Z,70.28
2018-06-17T02:12:12.927Z,70.63
2018-06-17T02:14:46.308Z,71.04
2018-06-17T02:17:14.413Z,70.55
2018-06-17T02:19:42.448Z,70.47
2018-06-17T02:22:10.493Z,71.28
2018-06-17T02:24:38.535Z,70.60
2018-06-17T02:27:06.732Z,71.66
2018-06-17T02:29:34.796Z,71.13
2018-06-17T02:32:02.856Z,71.78
2018-06-17T02:34:30.897Z,71.11
2018-06-17T02:36:58.948Z,71.27
2018-06-17T02:39:26.980Z,71.18
2018-06-17T02:41:55.024Z,71.55
2018-06-17T02:44:23.056Z,71.43
2018-06-17T02:46:56.452Z,71.61
2018-06-17T02:49:29.852Z,71.13
2018-06-17T02:52:03.343Z,70.80
2018-06-17T02:54:36.865Z,71.29
2018-06-17T02:57:05.108Z,71.30
2018-06-17T02:59:33.184Z,71.63
2018-06-17T03:02:01.475Z,71.19
2018-06-17T03:04:29.615Z,71.50
2018-06-17T03:06:57.687Z,71.79
2018-06-17T03:09:25.899Z,71.30
2018-06-17T03:11:53.985Z,71.73
2018-06-17T03:14:22.043Z,71.48
2018-06-17T03:16:50.079Z,71.22
2018-06-17T03:19:18.136Z,71.66
2018-06-17T03:21:46.191Z,71.48
2018-06-17T03:24:14.245Z,71.82
2018-06-17T03:26:47.792Z,71.88
2018-06-17T03:29:21.388Z,71.31
2018-06-17T03:31:54.807Z,71.90
2018-06-17T03:34:22.856Z,71.90
2018-06-17T03:36:50.884Z,71.38
2018-06-17T03:39:18.935Z,71.85
2018-06-17T03:41:46.992Z,71.90
2018-06-17T03:44:15.048Z,71.79
2018-06-17T03:46:43.076Z,71.72
2018-06-17T03:49:11.116Z,71.69
2018-06-17T03:51:39.169Z,71.37
2018-06-17T03:54:07.320Z,71.84
2018-06-17T03:56:35.436Z,71.71
2018-06-17T03:59:03.479Z,71.23
2018-06-17T04:01:31.516Z,71.44
2018-06-17T04:03:59.580Z,71.47
2018-06-17T04:06:27.607Z,71.57
2018-06-17T04:08:55.664Z,71.58
2018-06-17T04:11:23.731Z,70.97
2018-06-17T04:13:51.775Z,71.07
2018-06-17T04:16:19.820Z,71.13
2018-06-17T04:18:47.872Z,71.30
2018-06-17T04:21:16.001Z,71.61
2018-06-17T04:23:44.047Z,71.55
2018-06-17T04:26:12.121Z,71.93
2018-06-17T04:28:40.196Z,71.70
2018-06-17T04:31:08.252Z,71.34
2018-06-17T04:33:36.362Z,71.50
2018-06-17T04:36:04.405Z,71.54
2018-06-17T04:38:32.472Z,71.96
2018-06-17T04:41:00.514Z,71.54
2018-06-17T04:43:28.569Z,71.51
2018-06-17T04:45:56.651Z,71.81
2018-06-17T04:48:24.712Z,71.69
2018-06-17T04:50:52.756Z,71.48
2018-06-17T04:53:20.938Z,71.82
2018-06-17T04:55:49.001Z,71.36
2018-06-17T04:58:17.040Z,70.96
2018-06-17T05:00:45.105Z,70.59
2018-06-17T05:03:13.160Z,70.19
2018-06-17T05:05:41.228Z,70.53
2018-06-17T05:08:09.292Z,70.49
2018-06-17T05:10:37.424Z,70.08
2018-06-17T05:13:05.501Z,69.77
2018-06-17T05:15:33.597Z,69.61
2018-06-17T05:18:01.646Z,69.87
2018-06-17T05:20:29.712Z,69.96
2018-06-17T05:22:57.780Z,68.89
2018-06-17T05:25:25.844Z,68.44
2018-06-17T05:27:53.871Z,68.71
2018-06-17T05:30:21.944Z,67.82
2018-06-17T05:32:49.987Z,68.04
2018-06-17T05:35:18.089Z,67.01
2018-06-17T05:37:46.140Z,67.15
2018-06-17T05:40:14.205Z,67.05
2018-06-17T05:42:42.264Z,66.91
2018-06-17T05:45:10.324Z,67.16
2018-06-17T05:47:38.449Z,66.73
2018-06-17T05:50:06.455Z,66.16
2018-06-17T05:52:34.497Z,66.07
2018-06-17T05:55:02.569Z,65.85
2018-06-17T05:57:30.625Z,65.99
2018-06-17T05:59:58.676Z,64.89
2018-06-17T06:02:26.753Z,65.13
2018-06-17T06:04:54.834Z,64.09
2018-06-17T06:07:29.605Z,64.00
2018-06-17T06:09:57.680Z,64.41
2018-06-17T06:12:25.819Z,63.84
2018-06-17T06:14:53.886Z,63.23
2018-06-17T06:17:21.930Z,63.93
2018-06-17T06:19:49.984Z,62.28
2018-06-17T06:22:18.030Z,63.09
2018-06-17T06:24:46.172Z,62.66
2018-06-17T06:27:14.174Z,62.84
2018-06-17T06:29:42.236Z,62.17
2018-06-17T06:32:10.304Z,61.95
2018-06-17T06:34:38.352Z,62.13
2018-06-17T06:37:06.448Z,62.02
2018-06-17T06:39:34.496Z,62.12
2018-06-17T06:42:02.585Z,60.57
2018-06-17T06:44:30.639Z,61.19
2018-06-17T06:46:58.696Z,60.97
2018-06-17T06:49:26.748Z,60.83
2018-06-17T06:51:54.800Z,59.95
2018-06-17T06:54:22.852Z,60.04
2018-06-17T06:56:50.908Z,59.37
2018-06-17T06:59:18.972Z,58.91
2018-06-17T07:01:58.397Z,58.81
2018-06-17T07:04:37.804Z,58.85
2018-06-17T07:07:17.392Z,57.53
2018-06-17T07:09:56.827Z,57.56
2018-06-17T07:12:24.875Z,57.39
2018-06-17T07:14:59.795Z,56.96
2018-06-17T07:17:39.629Z,57.26
2018-06-17T07:20:10.798Z,56.46
2018-06-17T07:22:40.991Z,56.24
2018-06-17T07:25:12.747Z,55.59
2018-06-17T07:28:27.312Z,54.53
2018-06-17T07:30:55.403Z,54.52
2018-06-17T07:33:25.728Z,54.82
2018-06-17T07:35:53.780Z,54.38
2018-06-17T07:38:23.864Z,53.92
2018-06-17T07:40:55.436Z,53.55
2018-06-17T07:43:23.525Z,53.47
2018-06-17T07:45:53.817Z,53.33
2018-06-17T07:49:54.675Z,53.19
2018-06-17T07:52:35.356Z,52.61
2018-06-17T07:55:03.449Z,52.72
2018-06-17T07:57:32.728Z,53.09
2018-06-17T08:00:00.792Z,51.70
2018-06-17T08:02:29.130Z,52.14
2018-06-17T08:04:57.204Z,50.88
2018-06-17T08:07:25.459Z,51.69
2018-06-17T08:09:53.512Z,51.92
2018-06-17T08:12:21.608Z,51.38
2018-06-17T08:14:49.684Z,50.97
2018-06-17T08:17:17.785Z,50.07
2018-06-17T08:19:45.860Z,49.24
2018-06-17T08:22:13.928Z,48.52
2018-06-17T08:24:42.001Z,49.23
2018-06-17T08:27:10.061Z,48.81
2018-06-17T08:29:38.162Z,47.94
2018-06-17T08:32:06.219Z,48.54
2018-06-17T08:34:34.288Z,48.78
2018-06-17T08:37:02.367Z,47.88
2018-06-17T08:39:30.533Z,47.87
2018-06-17T08:41:58.660Z,47.82
2018-06-17T08:44:26.805Z,46.58
2018-06-17T08:46:55.278Z,46.63
2018-06-17T08:49:23.433Z,46.72
2018-06-17T08:51:51.501Z,46.23
2018-06-17T08:54:19.775Z,45.72
2018-06-17T08:56:47.800Z,45.25
2018-06-17T08:59:15.897Z,45.18
2018-06-17T09:01:55.015Z,44.66
2018-06-17T09:04:23.113Z,44.23
2018-06-17T09:06:51.196Z,43.54
2018-06-17T09:09:19.280Z,43.12
2018-06-17T09:11:47.356Z,43.39
2018-06-17T09:14:15.417Z,43.23
2018-06-17T09:16:43.516Z,42.99
2018-06-17T09:19:12.421Z,43.28
2018-06-17T09:21:40.492Z,42.73
2018-06-17T09:24:08.815Z,42.28
2018-06-17T09:26:36.898Z,42.44
2018-06-17T09:29:04.973Z,42.64
2018-06-17T09:31:33.058Z,41.88
2018-06-17T09:34:01.140Z,40.93
2018-06-17T09:36:29.293Z,40.66
2018-06-17T09:38:57.405Z,40.25
2018-06-17T09:41:25.515Z,39.66
2018-06-17T09:43:53.646Z,40.31
2018-06-17T09:46:21.714Z,39.86
2018-06-17T09:48:49.800Z,39.98
2018-06-17T09:51:17.906Z,38.94
2018-06-17T09:53:45.959Z,37.79
2018-06-17T09:56:14.016Z,38.41
2018-06-17T09:58:42.064Z,37.13
2018-06-17T10:01:10.124Z,37.68
2018-06-17T10:03:38.189Z,37.37
2018-06-17T10:06:06.228Z,36.72
2018-06-17T10:08:34.285Z,35.89
2018-06-17T10:11:04.264Z,37.21
2018-06-17T10:13:34.580Z,36.84
2018-06-17T10:16:02.710Z,37.08
2018-06-17T10:18:31.032Z,37.21
2018-06-17T10:20:59.094Z,37.39
2018-06-17T10:23:27.143Z,37.48
2018-06-17T10:25:55.213Z,36.63
2018-06-17T10:28:24.534Z,37.10
2018-06-17T10:30:53.445Z,36.32
2018-06-17T10:33:21.706Z,36.94
2018-06-17T10:35:49.759Z,37.19
2018-06-17T10:38:17.848Z,36.29
2018-06-17T10:40:46.111Z,35.82
2018-06-17T10:43:18.487Z,36.39
2018-06-17T10:45:46.561Z,35.83
2018-06-17T10:48:14.967Z,35.57
2018-06-17T10:50:43.049Z,35.48
2018-06-17T10:53:11.114Z,34.55
2018-06-17T10:55:39.256Z,33.81
2018-06-17T10:58:07.212Z,34.85
2018-06-17T11:00:35.265Z,36.33
2018-06-17T11:03:03.356Z,36.40
2018-06-17T11:05:31.523Z,36.46
2018-06-17T11:07:59.564Z,36.86
2018-06-17T11:10:27.638Z,35.99
2018-06-17T11:12:55.739Z,36.59
2018-06-17T11:15:23.763Z,36.65
2018-06-17T11:17:51.808Z,35.99
2018-06-17T11:20:19.877Z,33.66
2018-06-17T11:22:47.928Z,33.28
2018-06-17T11:25:16.080Z,32.40
2018-06-17T11:27:44.128Z,32.39
2018-06-17T11:30:12.187Z,32.40
2018-06-17T11:32:40.264Z,32.37
2018-06-17T11:35:08.360Z,32.66
2018-06-17T11:37:36.417Z,32.89
2018-06-17T11:40:04.559Z,33.50
2018-06-17T11:42:32.613Z,32.75
2018-06-17T11:45:00.681Z,33.86
2018-06-17T11:47:28.733Z,33.62
2018-06-17T11:49:56.800Z,33.55
2018-06-17T11:52:24.845Z,33.10
2018-06-17T11:54:52.900Z,33.18
2018-06-17T11:57:20.955Z,34.19
2018-06-17T11:59:49.074Z,32.97
2018-06-17T12:02:17.111Z,33.05
2018-06-17T12:04:45.181Z,33.67
2018-06-17T12:07:13.239Z,32.72
2018-06-17T12:09:41.361Z,32.78
2018-06-17T12:12:09.357Z,32.65
2018-06-17T12:14:37.416Z,32.63
2018-06-17T12:17:05.465Z,32.35
2018-06-17T12:19:33.510Z,33.18
2018-06-17T12:22:01.569Z,33.15
2018-06-17T12:24:29.667Z,33.29
2018-06-17T12:26:57.736Z,32.99
2018-06-17T12:29:25.780Z,32.19
2018-06-17T12:31:53.843Z,32.99
2018-06-17T12:34:21.904Z,32.26
2018-06-17T12:36:49.971Z,33.26
2018-06-17T12:39:18.031Z,32.54
2018-06-17T12:41:46.083Z,32.62
2018-06-17T12:44:14.136Z,32.54
2018-06-17T12:46:42.194Z,32.96
2018-06-17T12:49:10.232Z,33.71
2018-06-17T12:51:38.296Z,33.67
2018-06-17T12:54:06.344Z,34.16
2018-06-17T12:56:34.383Z,34.55
2018-06-17T12:59:02.437Z,34.72
2018-06-17T13:01:30.480Z,34.14
2018-06-17T13:03:58.552Z,34.39
2018-06-17T13:06:26.618Z,35.10
2018-06-17T13:08:54.676Z,35.34
2018-06-17T13:11:22.812Z,36.04
2018-06-17T13:13:50.865Z,36.19
2018-06-17T13:16:18.941Z,35.84
2018-06-17T13:18:47.001Z,35.29
2018-06-17T13:21:15.121Z,36.15
2018-06-17T13:23:43.287Z,35.90
2018-06-17T13:26:11.388Z,35.85
2018-06-17T13:28:39.516Z,35.75
2018-06-17T13:31:07.698Z,34.90
2018-06-17T13:33:35.748Z,35.59
2018-06-17T13:36:03.799Z,35.35
2018-06-17T13:38:31.853Z,34.00
2018-06-17T13:40:59.959Z,34.65
2018-06-17T13:43:28.036Z,33.90
2018-06-17T13:45:56.115Z,33.92
2018-06-17T13:48:24.180Z,34.83
2018-06-17T13:50:52.234Z,34.34
2018-06-17T13:53:20.275Z,35.05
2018-06-17T13:55:48.365Z,36.37
2018-06-17T13:58:16.439Z,37.40
2018-06-17T14:00:44.507Z,37.81
2018-06-17T14:03:12.617Z,38.43
2018-06-17T14:05:40.682Z,38.38
2018-06-17T14:08:08.752Z,38.56
2018-06-17T14:10:36.954Z,40.11
2018-06-17T14:13:05.027Z,40.02
2018-06-17T14:15:33.124Z,40.88
2018-06-17T14:18:01.208Z,40.97
2018-06-17T14:20:29.278Z,41.41
2018-06-17T14:22:57.356Z,42.69
2018-06-17T14:25:25.405Z,44.35
2018-06-17T14:27:53.470Z,42.80
2018-06-17T14:30:21.522Z,43.10
2018-06-17T14:32:49.597Z,43.73
2018-06-17T14:35:17.641Z,43.79
2018-06-17T14:37:45.717Z,43.38
2018-06-17T14:40:13.774Z,43.83
2018-06-17T14:42:47.164Z,43.56
2018-06-17T14:45:20.583Z,43.60
2018-06-17T14:47:53.880Z,43.95
2018-06-17T14:50:27.356Z,43.78
2018-06-17T14:53:00.903Z,43.94
2018-06-17T14:55:28.944Z,43.96
2018-06-17T14:57:57.049Z,44.25
2018-06-17T15:00:25.156Z,44.06
2018-06-17T15:02:53.207Z,44.00
2018-06-17T15:05:21.253Z,44.36
2018-06-17T15:07:49.383Z,44.63
2018-06-17T15:10:17.433Z,45.33
2018-06-17T15:12:45.663Z,45.56
2018-06-17T15:15:14.105Z,45.93
2018-06-17T15:17:42.384Z,46.58
2018-06-17T15:20:12.812Z,47.11
2018-06-17T15:22:40.870Z,47.60
2018-06-17T15:25:10.856Z,47.59
2018-06-17T15:27:58.160Z,47.75
2018-06-17T15:30:26.956Z,47.33
2018-06-17T15:33:00.385Z,47.22
2018-06-17T15:35:38.545Z,46.53
2018-06-17T15:38:19.934Z,46.55
2018-06-17T15:40:54.494Z,46.54
2018-06-17T15:43:43.260Z,45.70
2018-06-17T15:49:09.016Z,45.55
2018-06-17T15:51:37.073Z,45.57
2018-06-17T15:54:05.552Z,45.58
2018-06-17T15:56:33.650Z,45.08
2018-06-17T15:59:06.202Z,44.80
2018-06-17T16:01:39.849Z,44.67
2018-06-17T16:04:12.372Z,44.82
2018-06-17T16:06:43.261Z,44.41
2018-06-17T16:09:15.531Z,44.65
2018-06-17T16:11:50.810Z,44.16
2018-06-17T16:14:38.801Z,44.12
2018-06-17T16:17:29.120Z,43.74
2018-06-17T16:20:09.797Z,43.96
2018-06-17T16:22:40.069Z,43.91
2018-06-17T16:25:10.686Z,43.50
2018-06-17T16:27:40.440Z,43.56
2018-06-17T16:30:11.651Z,43.09
2018-06-17T16:32:43.975Z,42.95
2018-06-17T16:35:13.696Z,42.44
2018-06-17T16:37:42.062Z,43.15
2018-06-17T16:40:13.670Z,42.68
2018-06-17T16:42:47.053Z,42.57
2018-06-17T16:45:15.218Z,43.31
2018-06-17T16:47:44.491Z,42.72
2018-06-17T16:50:15.043Z,43.28
2018-06-17T16:52:53.566Z,43.20
2018-06-17T16:55:27.254Z,42.61
2018-06-17T16:58:06.302Z,43.82
2018-06-17T17:00:34.366Z,43.09
2018-06-17T17:03:02.529Z,43.54
2018-06-17T17:05:30.582Z,42.99
2018-06-17T17:07:58.736Z,42.97
2018-06-17T17:10:31.246Z,42.68
2018-06-17T17:12:59.353Z,43.03
2018-06-17T17:15:27.416Z,43.56
2018-06-17T17:17:55.489Z,43.74
2018-06-17T17:20:23.556Z,43.73
2018-06-17T17:22:51.645Z,43.32
2018-06-17T17:25:19.700Z,43.17
2018-06-17T17:27:47.782Z,43.57
2018-06-17T17:30:15.847Z,43.87
2018-06-17T17:32:49.315Z,43.76
2018-06-17T17:35:22.810Z,44.06
2018-06-17T17:37:56.272Z,44.14
2018-06-17T17:40:29.935Z,44.45
2018-06-17T17:42:58.005Z,43.63
2018-06-17T17:45:31.458Z,44.05
2018-06-17T17:47:59.533Z,44.41
2018-06-17T17:50:27.625Z,44.90
2018-06-17T17:52:55.711Z,44.34
2018-06-17T17:55:23.806Z,44.75
2018-06-17T17:57:51.890Z,45.15
2018-06-17T18:00:19.964Z,44.68
2018-06-17T18:02:48.092Z,44.54
2018-06-17T18:05:16.148Z,44.32
2018-06-17T18:07:44.227Z,44.95
2018-06-17T18:10:12.296Z,45.25
2018-06-17T18:12:40.352Z,45.30
2018-06-17T18:15:08.481Z,44.90
2018-06-17T18:17:36.551Z,44.51
2018-06-17T18:20:04.672Z,45.13
2018-06-17T18:22:32.728Z,45.21
2018-06-17T18:25:06.233Z,45.01
2018-06-17T18:27:39.796Z,44.84
2018-06-17T18:30:13.384Z,45.17
2018-06-17T18:32:46.776Z,45.04
2018-06-17T18:35:20.280Z,45.61
2018-06-17T18:37:48.359Z,45.22
2018-06-17T18:40:16.397Z,45.46
2018-06-17T18:42:44.453Z,45.59
2018-06-17T18:45:12.492Z,45.62
2018-06-17T18:47:40.559Z,45.53
2018-06-17T18:50:08.603Z,46.04
2018-06-17T18:52:36.780Z,46.16
2018-06-17T18:55:04.826Z,45.92
2018-06-17T18:57:32.876Z,46.31
2018-06-17T19:00:00.928Z,46.33
2018-06-17T19:02:29.002Z,45.34
2018-06-17T19:04:57.099Z,46.04
2018-06-17T19:07:25.218Z,45.55
2018-06-17T19:10:01.286Z,45.98
2018-06-17T19:12:34.799Z,45.85
2018-06-17T19:15:08.308Z,45.80
2018-06-17T19:17:41.847Z,46.16
2018-06-17T19:20:28.370Z,46.20
2018-06-17T19:22:57.159Z,46.17
2018-06-17T19:25:26.700Z,46.71
2018-06-17T19:27:54.811Z,46.00
2018-06-17T19:30:24.943Z,46.40
2018-06-17T19:32:53.259Z,46.32
2018-06-17T19:35:21.324Z,46.62
2018-06-17T19:37:49.521Z,46.23
2018-06-17T19:40:17.590Z,46.71
2018-06-17T19:42:46.723Z,47.37
2018-06-17T19:45:14.776Z,47.31
2018-06-17T19:47:43.883Z,46.75
2018-06-17T19:50:17.316Z,47.81
2018-06-17T19:52:50.872Z,46.97
2018-06-17T19:55:24.516Z,47.55
2018-06-17T19:57:58.107Z,47.25
2018-06-17T20:00:33.887Z,47.65
2018-06-17T20:03:02.937Z,48.07
2018-06-17T20:05:30.977Z,48.13
2018-06-17T20:07:59.044Z,48.11
2018-06-17T20:10:28.105Z,48.51
2018-06-17T20:12:56.261Z,49.49
2018-06-17T20:15:24.725Z,49.98
2018-06-17T20:17:52.812Z,49.53
2018-06-17T20:20:22.092Z,49.44
2018-06-17T20:22:50.187Z,49.56
2018-06-17T20:25:18.315Z,49.78
2018-06-17T20:27:47.260Z,50.33
2018-06-17T20:30:15.345Z,50.41
2018-06-17T20:32:48.752Z,50.47
2018-06-17T20:35:22.293Z,50.41
2018-06-17T20:37:55.605Z,51.11
2018-06-17T20:41:31.044Z,51.58
2018-06-17T20:43:59.424Z,51.62
2018-06-17T20:46:27.474Z,51.57
2018-06-17T20:48:55.589Z,51.79
2018-06-17T20:51:23.648Z,52.59
2018-06-17T20:53:51.701Z,52.99
2018-06-17T20:56:19.752Z,52.87
2018-06-17T20:58:47.794Z,53.21
2018-06-17T21:01:15.860Z,52.99
2018-06-17T21:03:43.929Z,53.38
2018-06-17T21:06:12.011Z,53.24
2018-06-17T21:08:40.048Z,53.58
2018-06-17T21:11:08.111Z,53.38
2018-06-17T21:13:36.178Z,53.81
2018-06-17T21:16:04.236Z,53.99
2018-06-17T21:18:37.701Z,54.06
2018-06-17T21:21:11.314Z,54.57
2018-06-17T21:23:44.870Z,54.83
2018-06-17T21:26:18.408Z,55.13
2018-06-17T21:28:46.460Z,55.42
2018-06-17T21:31:14.548Z,55.98
2018-06-17T21:33:42.613Z,55.67
2018-06-17T21:36:10.669Z,56.28
2018-06-17T21:38:38.721Z,56.01
2018-06-17T21:41:07.056Z,56.27
2018-06-17T21:43:35.113Z,56.78
2018-06-17T21:46:03.182Z,57.51
2018-06-17T21:48:31.253Z,56.75
2018-06-17T21:50:59.336Z,57.42
2018-06-17T21:53:27.384Z,57.58
2018-06-17T21:55:55.431Z,57.67
2018-06-17T21:58:28.897Z,58.06
2018-06-17T22:00:56.953Z,58.00
2018-06-17T22:03:25.016Z,58.21
2018-06-17T22:05:53.126Z,57.96
2018-06-17T22:08:26.624Z,58.38
2018-06-17T22:11:00.085Z,58.44
2018-06-17T22:13:32.351Z,58.50
2018-06-17T22:16:05.900Z,58.80
2018-06-17T22:18:33.956Z,59.05
2018-06-17T22:21:02.005Z,59.11
2018-06-17T22:23:30.096Z,59.34
2018-06-17T22:25:58.168Z,59.46
2018-06-17T22:28:26.237Z,59.34
2018-06-17T22:30:54.275Z,59.40
2018-06-17T22:33:22.320Z,59.35
2018-06-17T22:35:50.397Z,59.51
2018-06-17T22:38:18.445Z,59.62
2018-06-17T22:40:46.483Z,59.67
2018-06-17T22:43:14.547Z,59.62
2018-06-17T22:45:42.615Z,59.87
2018-06-17T22:48:10.664Z,59.93
2018-06-17T22:50:38.716Z,60.33
2018-06-17T22:53:18.409Z,60.15
2018-06-17T22:55:46.464Z,59.77
2018-06-17T22:58:19.949Z,59.77
2018-06-17T23:00:53.453Z,59.78
2018-06-17T23:03:26.992Z,60.26
2018-06-17T23:06:00.490Z,60.02
2018-06-17T23:08:33.959Z,59.89
2018-06-17T23:11:02.024Z,60.29
2018-06-17T23:13:30.084Z,60.43
2018-06-17T23:15:58.135Z,60.39
2018-06-17T23:18:26.189Z,60.34
2018-06-17T23:20:54.225Z,60.11
2018-06-17T23:23:22.280Z,60.88
2018-06-17T23:25:50.348Z,60.87
2018-06-17T23:28:18.416Z,60.83
2018-06-17T23:30:46.490Z,61.78
2018-06-17T23:33:14.541Z,61.52
2018-06-17T23:35:42.604Z,62.00
2018-06-17T23:38:10.656Z,61.98
2018-06-17T23:40:38.704Z,62.07
2018-06-17T23:43:06.762Z,62.11
2018-06-17T23:45:34.822Z,61.91
2018-06-17T23:48:08.197Z,62.46
2018-06-17T23:50:41.696Z,62.41
2018-06-17T23:53:15.145Z,62.25
2018-06-17T23:55:48.547Z,62.46
2018-06-17T23:58:16.608Z,62.22
